Time;durP1;ratioP1;P1;durP2;ratioP2;P2;SDS_P1;SDS_P2;PMS_P1;PMS_P2;Temp;Humidity;BMP_temperature;BMP_pressure;BME280_temperature;BME280_humidity;BME280_pressure;Samples;Min_cycle;Max_cycle;Signal;HPM_P1;HPM_P2
2021/10/17 00:00:10;;;;;;;53.58;31.58;;;;;;;;;;5039401;28;20068;-82
2021/10/17 00:02:36;;;;;;;55.50;32.38;;;;;;;;;;5039574;28;20025;-81
2021/10/17 00:05:02;;;;;;;50.75;31.17;;;;;;;;;;5021614;28;20355;-81
2021/10/17 00:07:28;;;;;;;47.45;30.42;;;;;;;;;;5021946;28;20072;-81
2021/10/17 00:09:54;;;;;;;52.13;30.42;;;;;;;;;;5022068;28;20037;-82
2021/10/17 00:12:20;;;;;;;44.95;30.10;;;;;;;;;;5022036;28;20116;-81
2021/10/17 00:14:46;;;;;;;50.88;30.23;;;;;;;;;;5039421;28;20025;-81
2021/10/17 00:17:12;;;;;;;48.58;30.85;;;;;;;;;;5039045;28;20028;-81
2021/10/17 00:19:39;;;;;;;46.03;30.38;;;;;;;;;;5039214;28;20450;-81
2021/10/17 00:22:05;;;;;;;52.83;31.92;;;;;;;;;;5039339;28;20025;-82
2021/10/17 00:24:31;;;;;;;46.03;29.85;;;;;;;;;;5039519;28;20491;-81
2021/10/17 00:26:57;;;;;;;51.25;30.25;;;;;;;;;;5039327;28;20088;-81
2021/10/17 00:29:23;;;;;;;44.85;28.88;;;;;;;;;;5038762;28;20404;-81
2021/10/17 00:31:50;;;;;;;44.78;29.88;;;;;;;;;;5039295;28;20057;-81
2021/10/17 00:34:16;;;;;;;46.00;29.15;;;;;;;;;;5038812;28;20027;-81
2021/10/17 00:36:42;;;;;;;45.72;28.85;;;;;;;;;;5039080;28;20096;-81
2021/10/17 00:39:08;;;;;;;47.42;31.02;;;;;;;;;;5039097;28;20125;-81
2021/10/17 00:41:34;;;;;;;49.97;29.80;;;;;;;;;;5038951;28;20022;-81
2021/10/17 00:44:04;;;;;;;47.30;29.90;;;;;;;;;;5021309;28;20075;-81
2021/10/17 00:46:31;;;;;;;47.78;29.83;;;;;;;;;;5038799;28;20030;-81
2021/10/17 00:48:57;;;;;;;45.95;28.58;;;;;;;;;;5038714;28;20040;-81
2021/10/17 00:51:23;;;;;;;44.92;28.00;;;;;;;;;;5038840;28;20420;-81
2021/10/17 00:53:49;;;;;;;45.28;28.30;;;;;;;;;;5038783;28;20083;-82
2021/10/17 00:56:15;;;;;;;47.40;27.45;;;;;;;;;;5020990;28;20021;-81
2021/10/17 00:58:41;;;;;;;42.22;27.58;;;;;;;;;;5038422;28;20029;-82
2021/10/17 01:01:08;;;;;;;41.83;27.88;;;;;;;;;;5021120;28;20053;-81
2021/10/17 01:03:34;;;;;;;41.83;27.42;;;;;;;;;;5038516;28;20052;-81
2021/10/17 01:06:00;;;;;;;44.45;27.75;;;;;;;;;;5038340;28;20029;-81
2021/10/17 01:08:26;;;;;;;40.85;27.65;;;;;;;;;;5038359;28;20033;-81
2021/10/17 01:10:56;;;;;;;41.95;27.33;;;;;;;;;;5038281;28;20039;-81
2021/10/17 01:13:23;;;;;;;40.25;26.65;;;;;;;;;;5038272;28;20416;-81
2021/10/17 01:15:53;;;;;;;45.70;26.48;;;;;;;;;;5038480;28;20025;-81
2021/10/17 01:18:20;;;;;;;39.83;27.33;;;;;;;;;;5038146;28;20022;-81
2021/10/17 01:20:46;;;;;;;44.00;25.92;;;;;;;;;;5038145;28;20017;-82
2021/10/17 01:23:13;;;;;;;42.38;26.95;;;;;;;;;;5038413;28;20032;-82
2021/10/17 01:25:39;;;;;;;42.38;27.52;;;;;;;;;;5038274;28;20029;-82
2021/10/17 01:28:05;;;;;;;42.15;25.92;;;;;;;;;;5038086;28;20033;-82
2021/10/17 01:30:32;;;;;;;40.85;26.75;;;;;;;;;;5020410;28;20037;-82
2021/10/17 01:32:59;;;;;;;39.08;26.38;;;;;;;;;;5037441;28;20030;-82
2021/10/17 01:35:25;;;;;;;41.90;26.23;;;;;;;;;;5020350;28;20156;-82
2021/10/17 01:37:51;;;;;;;47.17;27.23;;;;;;;;;;5038030;28;20308;-82
2021/10/17 01:40:17;;;;;;;43.75;26.92;;;;;;;;;;5020320;28;20029;-82
2021/10/17 01:42:43;;;;;;;38.78;26.60;;;;;;;;;;5037499;28;20087;-82
2021/10/17 01:45:10;;;;;;;37.83;25.35;;;;;;;;;;5020439;28;20030;-82
2021/10/17 01:47:36;;;;;;;41.80;26.50;;;;;;;;;;5037642;28;20013;-82
2021/10/17 01:50:03;;;;;;;42.53;26.83;;;;;;;;;;5019980;28;20072;-82
2021/10/17 01:52:29;;;;;;;41.58;27.08;;;;;;;;;;5037513;28;20404;-81
2021/10/17 01:54:55;;;;;;;45.13;28.23;;;;;;;;;;5037748;28;20036;-81
2021/10/17 01:57:21;;;;;;;38.70;25.45;;;;;;;;;;5037329;28;20029;-82
2021/10/17 01:59:47;;;;;;;44.05;26.30;;;;;;;;;;5019769;28;20073;-82
2021/10/17 02:02:13;;;;;;;41.10;26.30;;;;;;;;;;5037390;28;20466;-81
2021/10/17 02:04:39;;;;;;;42.72;27.27;;;;;;;;;;5037437;28;20040;-81
2021/10/17 02:07:06;;;;;;;37.63;25.35;;;;;;;;;;5019944;28;20128;-81
2021/10/17 02:09:32;;;;;;;37.88;25.90;;;;;;;;;;5037346;28;20355;-81
2021/10/17 02:11:58;;;;;;;39.33;26.45;;;;;;;;;;5036923;28;20033;-80
2021/10/17 02:14:26;;;;;;;39.42;26.52;;;;;;;;;;5037220;28;20021;-81
2021/10/17 02:16:52;;;;;;;40.83;26.60;;;;;;;;;;5037349;28;20048;-82
2021/10/17 02:19:18;;;;;;;42.45;27.30;;;;;;;;;;5037224;28;20031;-82
2021/10/17 02:21:44;;;;;;;34.72;24.73;;;;;;;;;;5037085;28;20049;-82
2021/10/17 02:24:11;;;;;;;38.38;24.48;;;;;;;;;;5037094;28;20033;-82
2021/10/17 02:26:40;;;;;;;37.85;25.38;;;;;;;;;;5037123;28;20103;-82
2021/10/17 02:29:07;;;;;;;39.92;26.73;;;;;;;;;;5037116;28;20029;-82
2021/10/17 02:31:33;;;;;;;40.15;26.40;;;;;;;;;;5036896;28;20428;-82
2021/10/17 02:33:59;;;;;;;37.38;24.95;;;;;;;;;;5019379;28;20419;-81
2021/10/17 02:36:25;;;;;;;36.42;25.67;;;;;;;;;;5037202;28;20022;-81
2021/10/17 02:38:51;;;;;;;38.03;25.13;;;;;;;;;;5019445;28;20041;-82
2021/10/17 02:41:17;;;;;;;41.40;25.83;;;;;;;;;;5019517;28;20026;-81
2021/10/17 02:43:43;;;;;;;39.25;25.10;;;;;;;;;;5036619;28;20107;-81
2021/10/17 02:46:09;;;;;;;40.97;25.10;;;;;;;;;;5040754;28;20025;-81
2021/10/17 02:48:35;;;;;;;38.08;25.98;;;;;;;;;;5040976;28;20026;-81
2021/10/17 02:51:01;;;;;;;37.72;26.10;;;;;;;;;;5023415;28;20282;-82
2021/10/17 02:53:27;;;;;;;38.17;26.35;;;;;;;;;;5041093;28;20041;-81
2021/10/17 02:55:53;;;;;;;38.30;27.08;;;;;;;;;;5041053;28;20312;-81
2021/10/17 02:58:19;;;;;;;38.92;26.48;;;;;;;;;;5040782;28;20030;-81
2021/10/17 03:00:45;;;;;;;37.83;26.80;;;;;;;;;;5040623;28;20045;-81
2021/10/17 03:03:11;;;;;;;39.67;26.40;;;;;;;;;;5041211;28;20490;-81
2021/10/17 03:05:38;;;;;;;43.65;27.65;;;;;;;;;;5040251;28;20030;-82
2021/10/17 03:08:04;;;;;;;41.63;28.65;;;;;;;;;;5022693;28;20439;-81
2021/10/17 03:10:30;;;;;;;39.53;27.45;;;;;;;;;;5040741;28;20412;-82
2021/10/17 03:12:56;;;;;;;39.50;26.13;;;;;;;;;;5040419;28;20032;-81
2021/10/17 03:15:22;;;;;;;37.10;25.42;;;;;;;;;;5040648;28;20116;-82
2021/10/17 03:17:48;;;;;;;37.72;25.65;;;;;;;;;;5040548;28;20307;-81
2021/10/17 03:20:14;;;;;;;38.08;25.27;;;;;;;;;;5040426;28;20027;-81
2021/10/17 03:22:40;;;;;;;36.10;24.02;;;;;;;;;;5040423;28;20021;-82
2021/10/17 03:25:07;;;;;;;38.83;24.23;;;;;;;;;;5040384;28;20438;-82
2021/10/17 03:27:33;;;;;;;34.78;23.30;;;;;;;;;;5022668;28;20029;-82
2021/10/17 03:29:59;;;;;;;42.65;26.38;;;;;;;;;;5017968;28;20029;-82
2021/10/17 03:32:25;;;;;;;37.22;23.98;;;;;;;;;;5032816;28;20033;-72
2021/10/17 03:34:51;;;;;;;39.53;25.20;;;;;;;;;;5020241;28;20033;-73
2021/10/17 03:37:17;;;;;;;39.22;24.73;;;;;;;;;;5021632;28;20160;-81
2021/10/17 03:39:43;;;;;;;38.58;23.77;;;;;;;;;;5019999;28;20022;-81
2021/10/17 03:42:10;;;;;;;36.92;23.13;;;;;;;;;;5020063;28;20037;-82
2021/10/17 03:44:36;;;;;;;39.65;23.80;;;;;;;;;;5020306;28;20144;-82
2021/10/17 03:47:02;;;;;;;33.17;22.80;;;;;;;;;;5020234;28;20052;-82
2021/10/17 03:49:28;;;;;;;35.65;23.20;;;;;;;;;;5020466;28;20332;-82
2021/10/17 03:51:54;;;;;;;33.90;22.08;;;;;;;;;;5022968;28;20025;-82
2021/10/17 03:54:20;;;;;;;39.55;23.67;;;;;;;;;;5022277;28;20045;-82
2021/10/17 03:56:46;;;;;;;36.70;22.25;;;;;;;;;;5039196;28;20018;-82
2021/10/17 03:59:15;;;;;;;34.05;21.75;;;;;;;;;;5039582;28;20057;-82
2021/10/17 04:01:41;;;;;;;35.17;22.17;;;;;;;;;;5027324;28;20022;-82
2021/10/17 04:04:07;;;;;;;31.38;21.67;;;;;;;;;;5020871;28;20076;-82
2021/10/17 04:06:33;;;;;;;31.15;21.88;;;;;;;;;;5020249;28;20117;-82
2021/10/17 04:08:59;;;;;;;33.40;21.85;;;;;;;;;;5031271;28;20026;-82
2021/10/17 04:11:25;;;;;;;30.33;19.65;;;;;;;;;;5002047;28;20129;-82
2021/10/17 04:13:51;;;;;;;29.45;21.10;;;;;;;;;;5019608;28;20114;-82
2021/10/17 04:16:17;;;;;;;33.83;21.35;;;;;;;;;;5019639;28;20018;-82
2021/10/17 04:18:43;;;;;;;32.90;19.58;;;;;;;;;;5020002;28;20029;-81
2021/10/17 04:21:09;;;;;;;35.17;21.50;;;;;;;;;;5019517;28;20022;-82
2021/10/17 04:23:35;;;;;;;34.13;20.15;;;;;;;;;;5019398;28;20412;-82
2021/10/17 04:26:01;;;;;;;36.95;21.95;;;;;;;;;;5019364;28;20421;-82
2021/10/17 04:28:27;;;;;;;39.22;23.50;;;;;;;;;;5003197;28;20434;-82
2021/10/17 04:30:53;;;;;;;46.03;26.85;;;;;;;;;;5019489;28;20041;-82
2021/10/17 04:33:20;;;;;;;47.95;29.42;;;;;;;;;;5019073;28;20022;-82
2021/10/17 04:35:46;;;;;;;47.17;29.38;;;;;;;;;;5019423;28;20022;-83
2021/10/17 04:38:14;;;;;;;45.58;27.38;;;;;;;;;;5019288;28;20102;-82
2021/10/17 04:40:41;;;;;;;46.40;26.75;;;;;;;;;;5019807;28;20036;-82
2021/10/17 04:43:07;;;;;;;43.13;25.15;;;;;;;;;;5001955;28;20030;-83
2021/10/17 04:45:37;;;;;;;46.55;25.67;;;;;;;;;;5019293;28;20153;-83
2021/10/17 04:48:03;;;;;;;40.85;25.77;;;;;;;;;;5019358;28;20029;-83
2021/10/17 04:50:29;;;;;;;37.38;24.30;;;;;;;;;;5037813;28;20040;-83
2021/10/17 04:52:56;;;;;;;38.22;23.45;;;;;;;;;;5038767;28;20033;-83
2021/10/17 04:55:22;;;;;;;38.05;24.13;;;;;;;;;;5039049;28;20029;-82
2021/10/17 04:58:06;;;;;;;41.67;24.63;;;;;;;;;;5021136;28;20482;-83
2021/10/17 05:00:33;;;;;;;51.67;25.30;;;;;;;;;;5019195;28;20053;-83
2021/10/17 05:02:59;;;;;;;41.97;25.27;;;;;;;;;;5019135;28;20030;-83
2021/10/17 05:05:25;;;;;;;44.00;24.42;;;;;;;;;;5018989;28;20060;-83
2021/10/17 05:07:51;;;;;;;38.85;24.40;;;;;;;;;;5018235;28;20092;-82
2021/10/17 05:10:17;;;;;;;40.33;24.95;;;;;;;;;;5035022;28;20079;-83
2021/10/17 05:12:43;;;;;;;39.88;24.83;;;;;;;;;;5038731;28;20155;-83
2021/10/17 05:15:09;;;;;;;35.30;21.80;;;;;;;;;;5038676;28;20363;-82
2021/10/17 05:17:35;;;;;;;45.20;21.48;;;;;;;;;;5036711;28;20053;-82
2021/10/17 05:20:01;;;;;;;36.25;21.98;;;;;;;;;;5038182;28;20022;-81
2021/10/17 05:22:27;;;;;;;33.60;20.17;;;;;;;;;;5036662;28;20029;-82
2021/10/17 05:24:53;;;;;;;33.45;20.08;;;;;;;;;;5038068;28;20021;-81
2021/10/17 05:27:19;;;;;;;35.63;19.55;;;;;;;;;;5038227;28;20029;-82
2021/10/17 05:29:45;;;;;;;36.28;19.17;;;;;;;;;;5038240;28;20028;-82
2021/10/17 05:32:11;;;;;;;28.33;17.67;;;;;;;;;;5031417;28;20025;-82
2021/10/17 05:34:37;;;;;;;28.27;16.15;;;;;;;;;;5037901;28;20025;-82
2021/10/17 05:37:03;;;;;;;26.33;17.20;;;;;;;;;;5023814;28;20021;-82
2021/10/17 05:39:29;;;;;;;26.10;16.80;;;;;;;;;;5019235;28;20324;-82
2021/10/17 05:41:56;;;;;;;26.35;17.58;;;;;;;;;;5018081;28;20405;-82
2021/10/17 05:44:22;;;;;;;25.60;15.68;;;;;;;;;;5017887;28;20025;-82
2021/10/17 05:46:48;;;;;;;26.05;16.85;;;;;;;;;;5017957;28;20022;-81
2021/10/17 05:49:14;;;;;;;24.30;15.60;;;;;;;;;;5006143;28;20038;-82
2021/10/17 05:51:40;;;;;;;21.48;15.27;;;;;;;;;;5037660;28;20021;-82
2021/10/17 05:54:06;;;;;;;27.83;16.17;;;;;;;;;;5037549;28;20037;-82
2021/10/17 05:56:32;;;;;;;24.85;15.68;;;;;;;;;;5020081;28;20116;-82
2021/10/17 05:58:58;;;;;;;24.52;14.77;;;;;;;;;;5037389;28;20439;-82
2021/10/17 06:01:24;;;;;;;25.55;16.25;;;;;;;;;;5031639;28;20343;-82
2021/10/17 06:03:50;;;;;;;27.40;15.70;;;;;;;;;;5000527;28;20084;-82
2021/10/17 06:06:17;;;;;;;32.13;17.08;;;;;;;;;;5017794;28;20436;-82
2021/10/17 06:08:46;;;;;;;35.15;20.77;;;;;;;;;;5017418;28;20041;-82
2021/10/17 06:11:12;;;;;;;35.92;19.67;;;;;;;;;;5033665;28;20029;-82
2021/10/17 06:13:38;;;;;;;29.67;18.98;;;;;;;;;;5037083;28;20025;-82
2021/10/17 06:16:04;;;;;;;30.58;17.50;;;;;;;;;;5037208;28;20053;-82
2021/10/17 06:18:31;;;;;;;27.30;15.88;;;;;;;;;;5037247;28;20025;-82
2021/10/17 06:20:57;;;;;;;24.95;16.10;;;;;;;;;;5037189;28;20075;-82
2021/10/17 06:23:23;;;;;;;25.38;16.65;;;;;;;;;;5032343;28;20038;-82
2021/10/17 06:25:49;;;;;;;32.78;17.80;;;;;;;;;;4999551;28;20038;-82
2021/10/17 06:28:15;;;;;;;25.48;16.38;;;;;;;;;;5017068;28;20029;-82
2021/10/17 06:30:41;;;;;;;26.73;15.13;;;;;;;;;;5023355;28;20028;-82
2021/10/17 06:33:07;;;;;;;30.80;17.95;;;;;;;;;;5019501;28;20047;-82
2021/10/17 06:35:33;;;;;;;29.42;15.05;;;;;;;;;;5037079;28;20162;-82
2021/10/17 06:37:59;;;;;;;24.92;15.75;;;;;;;;;;5035192;28;20068;-82
2021/10/17 06:40:25;;;;;;;29.15;17.67;;;;;;;;;;5036703;28;20056;-82
2021/10/17 06:42:51;;;;;;;30.67;16.17;;;;;;;;;;5036589;28;20021;-82
2021/10/17 06:45:18;;;;;;;29.30;16.95;;;;;;;;;;5037092;28;20083;-82
2021/10/17 06:47:44;;;;;;;21.63;15.73;;;;;;;;;;5037002;28;20029;-82
2021/10/17 06:50:10;;;;;;;24.25;14.57;;;;;;;;;;5031231;28;20063;-81
2021/10/17 06:52:36;;;;;;;19.10;12.85;;;;;;;;;;5017222;28;20073;-82
2021/10/17 06:55:02;;;;;;;23.63;13.25;;;;;;;;;;4999778;28;20125;-82
2021/10/17 06:57:28;;;;;;;28.00;13.85;;;;;;;;;;5017226;28;20025;-82
2021/10/17 06:59:54;;;;;;;26.17;14.88;;;;;;;;;;5017061;28;20072;-82
2021/10/17 07:02:20;;;;;;;21.35;15.07;;;;;;;;;;5017144;28;20046;-82
2021/10/17 07:04:46;;;;;;;25.15;15.77;;;;;;;;;;5025632;28;20416;-81
2021/10/17 07:07:12;;;;;;;27.75;15.43;;;;;;;;;;5019157;28;20429;-82
2021/10/17 07:09:38;;;;;;;27.52;17.05;;;;;;;;;;5017024;28;20125;-82
2021/10/17 07:12:04;;;;;;;25.02;15.02;;;;;;;;;;5035267;28;20030;-82
2021/10/17 07:14:30;;;;;;;25.10;14.90;;;;;;;;;;5019011;28;20037;-81
2021/10/17 07:16:56;;;;;;;28.73;15.75;;;;;;;;;;5036630;28;20041;-81
2021/10/17 07:19:22;;;;;;;27.17;15.18;;;;;;;;;;5036653;28;20056;-81
2021/10/17 07:21:48;;;;;;;23.75;14.32;;;;;;;;;;5002211;28;20034;-82
2021/10/17 07:24:14;;;;;;;25.02;13.73;;;;;;;;;;5017980;28;20033;-82
2021/10/17 07:26:41;;;;;;;24.33;12.70;;;;;;;;;;5016961;28;20030;-81
2021/10/17 07:29:07;;;;;;;23.95;12.68;;;;;;;;;;5016707;28;20320;-80
2021/10/17 07:31:33;;;;;;;24.90;12.48;;;;;;;;;;5019584;28;20040;-81
2021/10/17 07:33:59;;;;;;;19.08;11.40;;;;;;;;;;5020352;28;20022;-82
2021/10/17 07:36:25;;;;;;;17.13;10.95;;;;;;;;;;5020431;28;20063;-81
2021/10/17 07:38:51;;;;;;;19.60;12.02;;;;;;;;;;5025266;28;20033;-81
2021/10/17 07:41:17;;;;;;;20.38;12.35;;;;;;;;;;5020754;28;20466;-82
2021/10/17 07:43:43;;;;;;;21.50;11.27;;;;;;;;;;5020915;28;20317;-82
2021/10/17 07:46:10;;;;;;;18.00;11.70;;;;;;;;;;5025582;28;20025;-81
2021/10/17 07:48:38;;;;;;;16.95;10.75;;;;;;;;;;5037576;28;20025;-82
2021/10/17 07:51:05;;;;;;;16.70;11.40;;;;;;;;;;5008189;28;20034;-82
2021/10/17 07:53:31;;;;;;;20.75;12.27;;;;;;;;;;5020201;28;20026;-81
2021/10/17 07:55:57;;;;;;;22.20;12.93;;;;;;;;;;5021331;28;20113;-82
2021/10/17 08:01:27;;;;;;;17.88;11.50;;;;;;;;;;5019752;28;20048;-83
2021/10/17 08:03:53;;;;;;;19.98;10.25;;;;;;;;;;5020143;28;20026;-82
2021/10/17 08:06:19;;;;;;;21.52;11.82;;;;;;;;;;5027777;28;20052;-82
2021/10/17 08:08:46;;;;;;;20.15;11.80;;;;;;;;;;5039666;28;20029;-81
2021/10/17 08:11:12;;;;;;;28.45;14.18;;;;;;;;;;5021731;28;20026;-81
2021/10/17 08:13:38;;;;;;;19.35;11.88;;;;;;;;;;5019738;28;20030;-81
2021/10/17 08:16:04;;;;;;;16.55;10.40;;;;;;;;;;5022518;28;20423;-82
2021/10/17 08:18:30;;;;;;;19.33;11.95;;;;;;;;;;5019787;28;20048;-81
2021/10/17 08:20:57;;;;;;;15.90;10.48;;;;;;;;;;5019555;28;20018;-81
2021/10/17 08:23:23;;;;;;;14.48;10.25;;;;;;;;;;5004018;28;20072;-81
2021/10/17 08:25:49;;;;;;;16.30;10.90;;;;;;;;;;5020713;28;20045;-81
2021/10/17 08:28:15;;;;;;;18.00;11.65;;;;;;;;;;5019701;28;20053;-81
2021/10/17 08:30:44;;;;;;;16.85;10.98;;;;;;;;;;5023118;28;20339;-81
2021/10/17 08:33:10;;;;;;;17.33;11.52;;;;;;;;;;5001677;28;20033;-81
2021/10/17 08:35:36;;;;;;;18.70;11.90;;;;;;;;;;5019223;28;20107;-81
2021/10/17 08:38:02;;;;;;;17.65;11.88;;;;;;;;;;5001343;28;20044;-81
2021/10/17 08:40:28;;;;;;;19.73;12.13;;;;;;;;;;5019265;28;20036;-81
2021/10/17 08:42:54;;;;;;;20.58;12.95;;;;;;;;;;5000528;28;20073;-81
2021/10/17 08:45:20;;;;;;;19.05;12.57;;;;;;;;;;5018920;28;20030;-81
2021/10/17 08:47:47;;;;;;;18.80;11.70;;;;;;;;;;5019081;28;20026;-78
2021/10/17 08:50:15;;;;;;;18.85;12.23;;;;;;;;;;5018918;28;20028;-75
2021/10/17 08:52:42;;;;;;;24.30;13.70;;;;;;;;;;5022383;28;20052;-76
2021/10/17 08:55:12;;;;;;;20.70;14.48;;;;;;;;;;5020758;28;20030;-75
2021/10/17 08:57:38;;;;;;;18.10;12.73;;;;;;;;;;5024595;28;20052;-76
2021/10/17 09:00:24;;;;;;;20.38;13.60;;;;;;;;;;5029986;28;20037;-76
2021/10/17 09:02:50;;;;;;;18.45;12.45;;;;;;;;;;5026381;28;20100;-75
2021/10/17 09:05:16;;;;;;;16.17;11.15;;;;;;;;;;5018900;28;20018;-75
2021/10/17 09:07:43;;;;;;;19.40;11.43;;;;;;;;;;5018471;28;20113;-79
2021/10/17 09:10:15;;;;;;;17.60;10.88;;;;;;;;;;5001406;28;20057;-76
2021/10/17 09:12:42;;;;;;;26.37;15.80;;;;;;;;;;5018520;28;20076;-76
2021/10/17 09:15:22;;;;;;;22.85;13.23;;;;;;;;;;5018403;28;20030;-76
2021/10/17 09:18:17;;;;;;;21.35;13.07;;;;;;;;;;5018652;28;20026;-75
2021/10/17 09:20:49;;;;;;;22.40;14.02;;;;;;;;;;4920278;29;20040;-76
2021/10/17 09:23:15;;;;;;;19.50;12.45;;;;;;;;;;4920042;29;20028;-76
2021/10/17 09:25:41;;;;;;;18.75;11.38;;;;;;;;;;4919982;29;20142;-76
2021/10/17 09:28:31;;;;;;;17.42;10.27;;;;;;;;;;4919887;29;20111;-79
2021/10/17 09:30:57;;;;;;;20.05;10.75;;;;;;;;;;4863533;29;20348;-76
2021/10/17 09:33:24;;;;;;;14.57;10.00;;;;;;;;;;4863686;29;20041;-76
2021/10/17 09:35:50;;;;;;;20.35;11.15;;;;;;;;;;4863647;29;20104;-76
2021/10/17 09:38:17;;;;;;;16.45;10.30;;;;;;;;;;4863049;29;20069;-76
2021/10/17 09:40:45;;;;;;;13.63;9.32;;;;;;;;;;4863552;29;20030;-75
2021/10/17 09:43:20;;;;;;;14.18;9.55;;;;;;;;;;4863514;29;20476;-75
2021/10/17 09:45:47;;;;;;;14.38;8.80;;;;;;;;;;4863505;29;20037;-76
2021/10/17 09:48:33;;;;;;;13.18;7.13;;;;;;;;;;4863484;29;20073;-75
2021/10/17 09:51:03;;;;;;;10.05;5.97;;;;;;;;;;4863338;29;20037;-76
2021/10/17 09:53:41;;;;;;;9.48;5.57;;;;;;;;;;4863092;29;20425;-76
2021/10/17 09:56:08;;;;;;;7.95;4.30;;;;;;;;;;4871735;29;20098;-76
2021/10/17 09:58:34;;;;;;;6.93;4.70;;;;;;;;;;4938190;29;20441;-76
2021/10/17 10:01:00;;;;;;;6.00;4.05;;;;;;;;;;4938194;29;20128;-76
2021/10/17 10:03:27;;;;;;;8.50;4.18;;;;;;;;;;4938151;29;20028;-76
2021/10/17 10:05:57;;;;;;;13.05;8.30;;;;;;;;;;4958013;28;20460;-75
2021/10/17 10:08:27;;;;;;;8.82;4.15;;;;;;;;;;5019480;28;20038;-76
2021/10/17 10:10:54;;;;;;;5.07;3.65;;;;;;;;;;5019417;28;20068;-75
2021/10/17 10:13:20;;;;;;;5.88;3.40;;;;;;;;;;5036906;28;20459;-75
2021/10/17 10:15:46;;;;;;;7.47;4.93;;;;;;;;;;5037113;28;20112;-75
2021/10/17 10:18:13;;;;;;;9.10;5.35;;;;;;;;;;5015580;28;20310;-76
2021/10/17 10:20:42;;;;;;;8.70;3.38;;;;;;;;;;5016436;28;20036;-76
2021/10/17 10:23:10;;;;;;;7.78;3.60;;;;;;;;;;5017373;28;20021;-75
2021/10/17 10:25:37;;;;;;;6.68;4.68;;;;;;;;;;5017855;28;20350;-76
2021/10/17 10:28:05;;;;;;;10.00;4.78;;;;;;;;;;5020796;28;20022;-75
2021/10/17 10:30:35;;;;;;;6.45;3.72;;;;;;;;;;5034841;28;20033;-75
2021/10/17 10:33:04;;;;;;;9.25;4.47;;;;;;;;;;5035882;28;20028;-75
2021/10/17 10:35:30;;;;;;;8.20;4.38;;;;;;;;;;5036890;28;20419;-76
2021/10/17 10:37:56;;;;;;;7.78;3.67;;;;;;;;;;5032369;28;20029;-75
2021/10/17 10:40:22;;;;;;;7.15;3.85;;;;;;;;;;5036836;28;20136;-76
2021/10/17 10:42:49;;;;;;;11.45;4.25;;;;;;;;;;5025500;28;20403;-76
2021/10/17 10:45:32;;;;;;;8.35;4.32;;;;;;;;;;5016798;28;20117;-75
2021/10/17 10:48:11;;;;;;;9.73;6.40;;;;;;;;;;5017105;28;20034;-76
2021/10/17 10:50:38;;;;;;;13.00;8.23;;;;;;;;;;4999201;28;20100;-75
2021/10/17 10:53:04;;;;;;;10.65;5.88;;;;;;;;;;5016988;28;20053;-75
2021/10/17 10:55:39;;;;;;;14.90;7.13;;;;;;;;;;5028377;28;20021;-75
2021/10/17 10:58:25;;;;;;;15.65;8.35;;;;;;;;;;5016431;28;20018;-76
2021/10/17 11:00:53;;;;;;;10.90;6.25;;;;;;;;;;5029334;28;20052;-75
2021/10/17 11:03:19;;;;;;;14.00;6.95;;;;;;;;;;5036922;28;20026;-76
2021/10/17 11:06:04;;;;;;;12.63;6.63;;;;;;;;;;5036221;28;20021;-75
2021/10/17 11:08:30;;;;;;;7.18;4.47;;;;;;;;;;5040561;28;20036;-75
2021/10/17 11:10:56;;;;;;;10.02;5.80;;;;;;;;;;5040617;28;20037;-75
2021/10/17 11:13:35;;;;;;;9.15;5.05;;;;;;;;;;5040343;28;20052;-81
2021/10/17 11:16:02;;;;;;;16.75;8.77;;;;;;;;;;5040606;28;20021;-86
2021/10/17 11:18:29;;;;;;;9.25;5.25;;;;;;;;;;5040621;28;20029;-77
2021/10/17 11:20:55;;;;;;;13.25;6.22;;;;;;;;;;5022468;28;20335;-75
2021/10/17 11:23:23;;;;;;;16.83;8.40;;;;;;;;;;5040337;28;20033;-75
2021/10/17 11:25:53;;;;;;;24.60;13.43;;;;;;;;;;5040623;28;20025;-75
2021/10/17 11:28:19;;;;;;;19.42;11.77;;;;;;;;;;5040847;28;20026;-75
2021/10/17 11:30:45;;;;;;;27.80;18.83;;;;;;;;;;5040079;28;20411;-75
2021/10/17 11:33:21;;;;;;;15.23;8.55;;;;;;;;;;5040305;28;20025;-75
2021/10/17 11:35:48;;;;;;;11.07;7.00;;;;;;;;;;5022530;28;20415;-76
2021/10/17 11:38:15;;;;;;;7.57;4.43;;;;;;;;;;5040067;28;20026;-76
2021/10/17 11:40:42;;;;;;;6.70;3.75;;;;;;;;;;5040274;28;20029;-76
2021/10/17 11:43:08;;;;;;;8.18;4.10;;;;;;;;;;5040108;28;20028;-75
2021/10/17 11:45:35;;;;;;;5.68;3.30;;;;;;;;;;5039778;28;20415;-76
2021/10/17 11:48:04;;;;;;;3.65;2.70;;;;;;;;;;5039923;28;20030;-76
2021/10/17 11:50:35;;;;;;;6.00;2.70;;;;;;;;;;5039748;28;20095;-75
2021/10/17 11:53:08;;;;;;;8.13;2.97;;;;;;;;;;5039769;28;20029;-76
2021/10/17 11:55:38;;;;;;;5.07;3.22;;;;;;;;;;5039833;28;20068;-75
2021/10/17 11:58:15;;;;;;;5.72;3.67;;;;;;;;;;5039723;28;20104;-76
2021/10/17 12:00:41;;;;;;;7.65;3.35;;;;;;;;;;5039584;28;20069;-75
2021/10/17 12:03:07;;;;;;;7.47;3.47;;;;;;;;;;5039601;28;20046;-75
2021/10/17 12:05:34;;;;;;;6.07;3.75;;;;;;;;;;5039324;28;20031;-75
2021/10/17 12:08:00;;;;;;;6.70;3.50;;;;;;;;;;5035750;28;20045;-75
2021/10/17 12:10:27;;;;;;;6.20;3.75;;;;;;;;;;5019730;28;20034;-75
2021/10/17 12:12:57;;;;;;;6.53;3.55;;;;;;;;;;5019618;28;20040;-76
2021/10/17 12:15:23;;;;;;;6.30;4.00;;;;;;;;;;5002587;28;20030;-75
2021/10/17 12:17:56;;;;;;;5.43;3.25;;;;;;;;;;5019172;28;20022;-75
2021/10/17 12:20:22;;;;;;;7.60;3.80;;;;;;;;;;5019329;28;20033;-76
2021/10/17 12:22:49;;;;;;;9.98;5.82;;;;;;;;;;5019468;28;20022;-76
2021/10/17 12:25:15;;;;;;;7.28;4.07;;;;;;;;;;5019311;28;20320;-76
2021/10/17 12:27:45;;;;;;;7.60;4.35;;;;;;;;;;5019361;28;20018;-76
2021/10/17 12:30:19;;;;;;;6.00;3.33;;;;;;;;;;5019394;28;20030;-75
2021/10/17 12:32:54;;;;;;;8.57;4.00;;;;;;;;;;5019370;28;20026;-76
2021/10/17 12:35:23;;;;;;;7.05;3.97;;;;;;;;;;5001476;28;20427;-75
2021/10/17 12:37:50;;;;;;;7.82;4.25;;;;;;;;;;5019387;28;20026;-76
2021/10/17 12:40:16;;;;;;;6.32;4.00;;;;;;;;;;5019190;28;20030;-75
2021/10/17 12:42:46;;;;;;;94.75;39.42;;;;;;;;;;5001523;28;20132;-76
2021/10/17 12:45:12;;;;;;;32.35;16.30;;;;;;;;;;5018999;28;20026;-75
2021/10/17 12:47:42;;;;;;;7.05;4.35;;;;;;;;;;5019013;28;20049;-76
2021/10/17 12:50:13;;;;;;;529.25;255.95;;;;;;;;;;5019144;28;20030;-76
2021/10/17 12:52:39;;;;;;;48.72;20.98;;;;;;;;;;5019089;28;20022;-75
2021/10/17 12:55:05;;;;;;;87.00;36.08;;;;;;;;;;5018891;28;20021;-76
2021/10/17 12:57:32;;;;;;;36.67;15.25;;;;;;;;;;5018723;28;20022;-75
2021/10/17 12:59:59;;;;;;;33.08;11.95;;;;;;;;;;5018651;28;20041;-76
2021/10/17 13:02:36;;;;;;;54.35;24.15;;;;;;;;;;5018975;28;20017;-75
2021/10/17 13:05:07;;;;;;;11.48;6.82;;;;;;;;;;5018804;28;20030;-76
2021/10/17 13:07:34;;;;;;;7.70;4.03;;;;;;;;;;5018703;28;20080;-76
2021/10/17 13:10:17;;;;;;;33.10;14.43;;;;;;;;;;5018580;28;20037;-76
2021/10/17 13:12:44;;;;;;;6.70;3.95;;;;;;;;;;5018769;28;20033;-76
2021/10/17 13:15:16;;;;;;;7.50;4.00;;;;;;;;;;5018658;28;20036;-76
2021/10/17 13:17:42;;;;;;;;;;;;;;;;;;5001178;28;20041;-76
2021/10/17 13:20:10;;;;;;;18.58;7.70;;;;;;;;;;5018621;28;19906;-76
2021/10/17 13:22:37;;;;;;;5.03;3.80;;;;;;;;;;5000727;28;20030;-76
2021/10/17 13:25:04;;;;;;;7.72;4.85;;;;;;;;;;5018234;28;20030;-76
2021/10/17 13:27:30;;;;;;;12.73;7.40;;;;;;;;;;5018541;28;20345;-75
2021/10/17 13:29:57;;;;;;;14.05;6.72;;;;;;;;;;5018022;28;20387;-76
2021/10/17 13:32:27;;;;;;;46.55;15.85;;;;;;;;;;5018185;28;20279;-75
2021/10/17 13:34:53;;;;;;;20.98;8.60;;;;;;;;;;5018173;28;20081;-76
2021/10/17 13:37:19;;;;;;;14.90;6.80;;;;;;;;;;5018206;28;20320;-76
2021/10/17 13:39:45;;;;;;;7.20;5.03;;;;;;;;;;5018333;28;20030;-75
2021/10/17 13:42:12;;;;;;;7.68;5.13;;;;;;;;;;5018244;28;20026;-75
2021/10/17 13:44:38;;;;;;;10.73;6.05;;;;;;;;;;5018240;28;20030;-76
2021/10/17 13:47:04;;;;;;;6.40;4.47;;;;;;;;;;5017968;28;20076;-76
2021/10/17 13:49:30;;;;;;;10.95;6.50;;;;;;;;;;5017901;28;20431;-75
2021/10/17 13:51:56;;;;;;;13.15;7.28;;;;;;;;;;5000146;28;20044;-76
2021/10/17 13:54:22;;;;;;;12.23;7.57;;;;;;;;;;5017657;28;20022;-76
2021/10/17 13:56:51;;;;;;;11.70;7.25;;;;;;;;;;5017987;28;20022;-76
2021/10/17 13:59:17;;;;;;;17.88;10.57;;;;;;;;;;5017502;28;20021;-76
2021/10/17 14:01:43;;;;;;;13.35;8.52;;;;;;;;;;5000223;28;20175;-75
2021/10/17 14:04:10;;;;;;;21.80;13.38;;;;;;;;;;5017588;28;20037;-76
2021/10/17 14:06:36;;;;;;;19.67;12.68;;;;;;;;;;5018342;28;20036;-76
2021/10/17 14:09:02;;;;;;;13.30;9.30;;;;;;;;;;5009467;28;20045;-79
2021/10/17 14:11:28;;;;;;;13.05;8.45;;;;;;;;;;5017243;28;20042;-79
2021/10/17 14:13:54;;;;;;;14.40;10.02;;;;;;;;;;5016279;28;20034;-80
2021/10/17 14:16:20;;;;;;;12.38;7.22;;;;;;;;;;5017585;28;20028;-79
2021/10/17 14:18:46;;;;;;;12.75;7.88;;;;;;;;;;5017465;28;20022;-80
2021/10/17 14:21:12;;;;;;;13.00;9.30;;;;;;;;;;5017277;28;20045;-80
2021/10/17 14:23:38;;;;;;;15.77;11.98;;;;;;;;;;5017154;28;20040;-80
2021/10/17 14:26:04;;;;;;;14.02;9.38;;;;;;;;;;5017118;28;20121;-80